Time;durP1;ratioP1;P1;durP2;ratioP2;P2;SDS_P1;SDS_P2;PMS_P1;PMS_P2;Temp;Humidity;BMP_temperature;BMP_pressure;BME280_temperature;BME280_humidity;BME280_pressure;Samples;Min_cycle;Max_cycle;Signal;HPM_P1;HPM_P2
2023/06/18 00:02:17;;;;;;;34.47;25.33;;;;;;;;;;5094017;28;20451;-74
2023/06/18 00:04:43;;;;;;;36.42;25.92;;;;;;;;;;5097757;28;20417;-75
2023/06/18 00:07:08;;;;;;;33.05;25.95;;;16.60;99.90;;;;;;5076433;28;20843;-75
2023/06/18 00:09:35;;;;;;;34.05;25.63;;;;;;;;;;5087521;28;20422;-76
2023/06/18 00:12:00;;;;;;;37.17;26.42;;;16.60;99.90;;;;;;5100655;28;20424;-75
2023/06/18 00:14:26;;;;;;;35.13;25.77;;;;;;;;;;5091515;28;20471;-74
2023/06/18 00:16:52;;;;;;;37.10;26.02;;;;;;;;;;5090511;28;20777;-75
2023/06/18 00:19:19;;;;;;;33.35;24.80;;;;;;;;;;5097010;28;20815;-75
2023/06/18 00:21:46;;;;;;;33.83;25.17;;;16.40;99.90;;;;;;5089575;28;20535;-75
2023/06/18 00:24:12;;;;;;;35.33;26.10;;;;;;;;;;5074863;28;20913;-75
2023/06/18 00:26:37;;;;;;;39.08;27.27;;;16.10;99.90;;;;;;5091166;28;20939;-75
2023/06/18 00:29:03;;;;;;;37.55;26.65;;;;;;;;;;5092942;28;20417;-75
2023/06/18 00:31:32;;;;;;;37.65;27.05;;;16.00;99.90;;;;;;5091033;28;20462;-75
2023/06/18 00:34:04;;;;;;;33.13;24.58;;;;;;;;;;5095901;28;20426;-75
2023/06/18 00:36:31;;;;;;;34.50;25.52;;;16.00;99.90;;;;;;5097371;28;20504;-75
2023/06/18 00:38:57;;;;;;;35.30;26.08;;;;;;;;;;5092169;28;20787;-75
2023/06/18 00:41:27;;;;;;;35.63;25.30;;;16.20;99.90;;;;;;5105160;28;20419;-75
2023/06/18 00:43:53;;;;;;;35.33;27.02;;;16.20;99.90;;;;;;5098537;28;20414;-75
2023/06/18 00:46:20;;;;;;;41.67;28.17;;;15.90;99.90;;;;;;5091711;28;20473;-75
2023/06/18 00:48:47;;;;;;;38.25;26.92;;;15.90;99.90;;;;;;5091675;28;20413;-75
2023/06/18 00:51:13;;;;;;;36.95;26.98;;;;;;;;;;5099293;28;20491;-75
2023/06/18 00:53:39;;;;;;;35.97;27.02;;;;;;;;;;5097076;28;20418;-75
2023/06/18 00:56:05;;;;;;;37.50;27.88;;;16.10;99.90;;;;;;5100032;28;20497;-75
2023/06/18 00:58:31;;;;;;;36.67;26.80;;;15.80;99.90;;;;;;5086452;28;20540;-75
2023/06/18 01:00:57;;;;;;;37.35;27.23;;;;;;;;;;5073382;28;20765;-75
2023/06/18 01:03:25;;;;;;;37.97;27.77;;;15.90;99.90;;;;;;5093372;28;20904;-75
2023/06/18 01:05:57;;;;;;;40.30;27.70;;;;;;;;;;5089891;28;20463;-75
2023/06/18 01:08:23;;;;;;;37.13;27.95;;;16.10;99.90;;;;;;5091046;28;20452;-75
2023/06/18 01:11:01;;;;;;;39.97;28.85;;;16.00;99.90;;;;;;5099818;28;20413;-75
2023/06/18 01:13:30;;;;;;;40.08;28.00;;;;;;;;;;5092985;28;20417;-75
2023/06/18 01:16:03;;;;;;;37.17;26.92;;;15.90;99.90;;;;;;5089808;28;20417;-75
2023/06/18 01:18:34;;;;;;;37.35;27.08;;;;;;;;;;5092405;28;20480;-75
2023/06/18 01:21:01;;;;;;;45.13;30.70;;;;;;;;;;5087902;28;20422;-75
2023/06/18 01:23:30;;;;;;;39.50;27.85;;;;;;;;;;5097977;28;20417;-75
2023/06/18 01:25:59;;;;;;;42.53;29.98;;;;;;;;;;5106337;28;20895;-75
2023/06/18 01:28:27;;;;;;;37.72;27.80;;;15.60;99.90;;;;;;5092128;28;20425;-75
2023/06/18 01:30:54;;;;;;;38.13;27.50;;;15.60;99.90;;;;;;5091194;28;20491;-75
2023/06/18 01:33:21;;;;;;;38.08;27.55;;;15.70;99.90;;;;;;5090304;28;20437;-74
2023/06/18 01:35:47;;;;;;;40.00;27.97;;;;;;;;;;5080195;28;20418;-75
2023/06/18 01:38:24;;;;;;;40.15;28.10;;;15.50;99.90;;;;;;5107399;28;20469;-74
2023/06/18 01:41:08;;;;;;;38.33;28.40;;;15.60;99.90;;;;;;5092783;28;20478;-75
2023/06/18 01:43:46;;;;;;;38.10;28.02;;;15.50;99.90;;;;;;5089481;28;20410;-75
2023/06/18 01:46:14;;;;;;;38.67;27.98;;;;;;;;;;5091063;28;20409;-74
2023/06/18 01:48:55;;;;;;;40.70;28.60;;;15.30;99.90;;;;;;5108309;28;20420;-74
2023/06/18 01:51:22;;;;;;;40.95;28.35;;;;;;;;;;5106534;28;20402;-75
2023/06/18 01:53:50;;;;;;;39.65;28.58;;;;;;;;;;5091481;28;20472;-75
2023/06/18 01:56:17;;;;;;;40.15;28.48;;;;;;;;;;5090383;28;21001;-75
2023/06/18 01:58:43;;;;;;;37.88;27.88;;;15.30;99.90;;;;;;5079770;28;20427;-75
2023/06/18 02:01:11;;;;;;;39.67;28.02;;;15.40;99.90;;;;;;5101535;28;20429;-75
2023/06/18 02:03:37;;;;;;;35.40;26.87;;;15.10;99.90;;;;;;5097079;28;20408;-75
2023/06/18 02:06:04;;;;;;;35.08;26.20;;;;;;;;;;5106898;28;20420;-74
2023/06/18 02:08:30;;;;;;;36.17;26.20;;;;;;;;;;5105397;28;20430;-75
2023/06/18 02:10:56;;;;;;;33.95;25.38;;;;;;;;;;5095200;28;20897;-74
2023/06/18 02:13:22;;;;;;;37.42;26.65;;;;;;;;;;5091623;28;20416;-74
2023/06/18 02:15:48;;;;;;;35.88;25.55;;;15.00;99.90;;;;;;5076584;28;20413;-75
2023/06/18 02:18:14;;;;;;;36.88;26.48;;;15.30;99.90;;;;;;5092662;28;20880;-75
2023/06/18 02:20:41;;;;;;;34.10;24.65;;;;;;;;;;5093958;28;20457;-74
2023/06/18 02:23:07;;;;;;;32.72;24.90;;;;;;;;;;5092764;28;20418;-74
2023/06/18 02:25:34;;;;;;;31.77;24.08;;;;;;;;;;5076148;28;20428;-74
2023/06/18 02:28:00;;;;;;;31.17;24.33;;;15.40;99.90;;;;;;5102795;28;20432;-75
2023/06/18 02:30:28;;;;;;;29.50;22.83;;;;;;;;;;5094058;28;20432;-75
2023/06/18 02:32:55;;;;;;;27.97;22.27;;;15.00;99.90;;;;;;5096843;28;20451;-75
2023/06/18 02:35:21;;;;;;;27.98;22.35;;;15.20;99.90;;;;;;5089142;28;20414;-75
2023/06/18 02:37:47;;;;;;;29.85;22.90;;;;;;;;;;5076296;28;20445;-75
2023/06/18 02:40:14;;;;;;;31.20;23.57;;;;;;;;;;5059916;28;20588;-75
2023/06/18 02:42:47;;;;;;;28.90;22.15;;;15.00;99.90;;;;;;5092473;28;20497;-75
2023/06/18 02:45:31;;;;;;;29.23;22.40;;;;;;;;;;5108348;28;20460;-75
2023/06/18 02:47:57;;;;;;;30.73;22.98;;;;;;;;;;5108642;28;20471;-75
2023/06/18 02:50:24;;;;;;;28.35;21.98;;;;;;;;;;5093650;28;20476;-75
2023/06/18 02:52:50;;;;;;;26.30;20.77;;;;;;;;;;5094193;28;20424;-75
2023/06/18 02:55:16;;;;;;;25.63;20.17;;;;;;;;;;5099347;28;20424;-75
2023/06/18 02:57:42;;;;;;;24.35;20.13;;;;;;;;;;5105209;28;20470;-75
2023/06/18 03:00:13;;;;;;;24.65;19.77;;;;;;;;;;5092315;28;20877;-74
2023/06/18 03:02:41;;;;;;;30.30;20.42;;;14.90;99.90;;;;;;5099687;28;20487;-75
2023/06/18 03:05:07;;;;;;;24.40;18.80;;;;;;;;;;5085101;28;20417;-75
2023/06/18 03:07:33;;;;;;;34.40;20.33;;;;;;;;;;5106612;28;20453;-74
2023/06/18 03:09:59;;;;;;;26.30;20.10;;;14.40;99.90;;;;;;5096976;28;20778;-75
2023/06/18 03:12:26;;;;;;;25.90;20.08;;;;;;;;;;5102225;28;20484;-75
2023/06/18 03:14:52;;;;;;;26.83;20.87;;;;;;;;;;5095981;28;20835;-75
2023/06/18 03:17:18;;;;;;;25.88;20.50;;;;;;;;;;5098928;28;20418;-75
2023/06/18 03:19:44;;;;;;;25.48;20.08;;;14.40;99.90;;;;;;5092437;28;20402;-75
2023/06/18 03:22:10;;;;;;;24.85;20.05;;;14.20;99.90;;;;;;5071446;28;20429;-75
2023/06/18 03:24:38;;;;;;;26.15;20.13;;;;;;;;;;5098158;28;20417;-75
2023/06/18 03:27:04;;;;;;;36.95;23.15;;;;;;;;;;5094298;28;20745;-75
2023/06/18 03:29:30;;;;;;;29.80;21.63;;;;;;;;;;5092244;28;20547;-75
2023/06/18 03:31:57;;;;;;;30.30;22.63;;;;;;;;;;5094422;28;20430;-75
2023/06/18 03:34:23;;;;;;;29.27;22.30;;;;;;;;;;5105899;28;20412;-75
2023/06/18 03:36:49;;;;;;;29.67;22.35;;;;;;;;;;5104221;28;20516;-76
2023/06/18 03:39:16;;;;;;;35.83;23.73;;;;;;;;;;5093075;28;20432;-75
2023/06/18 03:41:42;;;;;;;32.95;23.90;;;;;;;;;;5101353;28;20509;-75
2023/06/18 03:44:09;;;;;;;33.63;23.95;;;;;;;;;;5093468;28;20414;-75
2023/06/18 03:46:35;;;;;;;34.53;23.92;;;;;;;;;;5097084;28;20427;-75
2023/06/18 03:49:01;;;;;;;37.70;25.98;;;;;;;;;;5089894;28;20421;-75
2023/06/18 03:51:27;;;;;;;39.87;26.27;;;;;;;;;;5094150;28;22453;-75
2023/06/18 03:53:53;;;;;;;36.90;26.20;;;;;;;;;;5093634;28;20417;-75
2023/06/18 03:56:21;;;;;;;40.00;27.15;;;14.10;99.90;;;;;;5106442;28;20445;-75
2023/06/18 03:58:48;;;;;;;43.05;26.23;;;;;;;;;;5092784;28;20893;-75
2023/06/18 04:01:15;;;;;;;42.63;28.63;;;14.00;99.90;;;;;;5101027;28;20756;-76
2023/06/18 04:03:41;;;;;;;37.80;27.08;;;;;;;;;;5091391;28;20459;-76
2023/06/18 04:06:07;;;;;;;39.33;28.10;;;;;;;;;;5090849;28;20425;-76
2023/06/18 04:08:36;;;;;;;41.05;27.77;;;;;;;;;;5091703;28;20418;-75
2023/06/18 04:11:03;;;;;;;45.28;28.90;;;;;;;;;;5091261;28;20407;-75
2023/06/18 04:13:29;;;;;;;44.33;29.80;;;;;;;;;;5089554;28;20443;-75
2023/06/18 04:15:55;;;;;;;42.70;28.60;;;;;;;;;;5077481;28;20887;-76
2023/06/18 04:18:21;;;;;;;46.65;30.10;;;;;;;;;;5093004;28;20584;-76
2023/06/18 04:20:48;;;;;;;45.30;29.63;;;;;;;;;;5093628;28;20889;-75
2023/06/18 04:23:14;;;;;;;50.03;30.30;;;;;;;;;;5079238;28;20422;-75
2023/06/18 04:25:40;;;;;;;47.90;30.65;;;;;;;;;;5076381;28;20817;-75
2023/06/18 04:28:06;;;;;;;46.05;29.92;;;;;;;;;;5081911;28;20421;-75
2023/06/18 04:30:32;;;;;;;47.15;30.70;;;14.30;99.90;;;;;;5090358;28;20424;-75
2023/06/18 04:32:58;;;;;;;48.53;30.50;;;;;;;;;;5095831;28;21060;-77
2023/06/18 04:35:24;;;;;;;43.50;30.08;;;;;;;;;;5099005;28;20416;-77
2023/06/18 04:37:50;;;;;;;49.50;30.77;;;;;;;;;;5104573;28;20841;-77
2023/06/18 04:40:18;;;;;;;50.28;31.60;;;14.90;99.90;;;;;;5090178;28;20397;-77
2023/06/18 04:42:44;;;;;;;46.83;30.70;;;;;;;;;;5080635;28;20465;-77
2023/06/18 04:45:10;;;;;;;48.17;31.45;;;14.80;99.90;;;;;;5090052;28;20414;-77
2023/06/18 04:47:36;;;;;;;47.20;30.93;;;;;;;;;;5090193;28;20422;-77
2023/06/18 04:50:05;;;;;;;44.35;29.73;;;;;;;;;;5090605;28;20411;-77
2023/06/18 04:52:31;;;;;;;47.00;30.60;;;14.80;99.90;;;;;;5094767;28;20423;-77
2023/06/18 04:54:57;;;;;;;54.88;32.05;;;;;;;;;;5091936;28;20418;-77
2023/06/18 04:57:23;;;;;;;47.30;31.00;;;;;;;;;;5090234;28;20454;-77
2023/06/18 04:59:51;;;;;;;47.80;30.92;;;;;;;;;;5091460;28;21508;-75
2023/06/18 05:02:18;;;;;;;50.53;31.23;;;;;;;;;;5094488;28;20428;-76
2023/06/18 05:04:44;;;;;;;54.83;32.63;;;;;;;;;;5093902;28;20952;-76
2023/06/18 05:07:10;;;;;;;54.13;31.75;;;;;;;;;;5072544;28;20436;-76
2023/06/18 05:09:36;;;;;;;66.60;33.03;;;;;;;;;;5094374;28;20418;-76
2023/06/18 05:12:02;;;;;;;49.35;32.03;;;15.20;99.90;;;;;;5091397;28;20456;-76
2023/06/18 05:14:28;;;;;;;57.03;33.40;;;15.00;99.90;;;;;;5102451;28;20408;-76
2023/06/18 05:16:54;;;;;;;57.20;33.13;;;;;;;;;;5078739;28;20426;-76
2023/06/18 05:19:20;;;;;;;53.92;33.53;;;15.30;99.90;;;;;;5094934;28;20464;-78
2023/06/18 05:21:46;;;;;;;57.85;33.40;;;;;;;;;;5092939;28;20457;-77
2023/06/18 05:24:12;;;;;;;57.25;34.58;;;;;;;;;;5095994;28;20449;-77
2023/06/18 05:26:38;;;;;;;60.55;35.30;;;;;;;;;;5093113;28;20486;-77
2023/06/18 05:29:03;;;;;;;63.55;37.08;;;15.70;99.90;;;;;;5098893;28;20422;-77
2023/06/18 05:31:30;;;;;;;72.10;38.95;;;;;;;;;;5096540;28;20496;-77
2023/06/18 05:33:56;;;;;;;77.57;41.25;;;;;;;;;;5100805;28;20487;-77
2023/06/18 05:36:22;;;;;;;72.15;41.13;;;;;;;;;;5100216;28;20425;-73
2023/06/18 05:38:50;;;;;;;74.10;41.95;;;;;;;;;;5093014;28;20455;-73
2023/06/18 05:41:16;;;;;;;63.47;38.65;;;;;;;;;;5092755;28;20479;-73
2023/06/18 05:43:42;;;;;;;62.53;38.03;;;;;;;;;;5075780;28;20525;-75
2023/06/18 05:46:08;;;;;;;55.28;35.75;;;15.90;99.90;;;;;;5074528;28;20445;-76
2023/06/18 05:48:33;;;;;;;59.50;36.45;;;15.70;99.90;;;;;;5089398;28;20953;-77
2023/06/18 05:50:59;;;;;;;53.03;35.03;;;16.10;99.90;;;;;;5094756;28;20493;-77
2023/06/18 05:53:26;;;;;;;60.47;36.60;;;;;;;;;;5080021;28;20787;-77
2023/06/18 05:55:51;;;;;;;51.45;34.28;;;16.10;99.90;;;;;;5101114;28;20987;-77
2023/06/18 05:58:18;;;;;;;50.85;34.50;;;16.50;99.90;;;;;;5101710;28;20421;-78
2023/06/18 06:00:43;;;;;;;50.35;33.97;;;16.80;99.90;;;;;;5094638;28;20422;-78
2023/06/18 06:03:10;;;;;;;48.25;32.92;;;;;;;;;;5096637;28;20491;-77
2023/06/18 06:05:36;;;;;;;45.50;30.65;;;;;;;;;;5099297;28;20992;-78
2023/06/18 06:08:02;;;;;;;45.00;31.83;;;17.20;99.90;;;;;;5106771;28;20912;-77
2023/06/18 06:10:28;;;;;;;44.20;31.50;;;16.80;99.90;;;;;;5088579;28;20437;-77
2023/06/18 06:12:54;;;;;;;44.17;31.30;;;;;;;;;;5080833;28;20831;-78
2023/06/18 06:15:21;;;;;;;40.42;28.95;;;17.20;99.90;;;;;;5086128;28;20941;-77
2023/06/18 06:17:46;;;;;;;41.08;28.95;;;17.50;99.90;;;;;;5074508;28;20426;-78
2023/06/18 06:20:12;;;;;;;43.15;30.52;;;;;;;;;;5076783;28;20898;-78
2023/06/18 06:22:39;;;;;;;39.53;27.88;;;;;;;;;;5097164;28;20424;-78
2023/06/18 06:25:05;;;;;;;39.33;27.80;;;17.80;99.90;;;;;;5075753;28;20428;-78
2023/06/18 06:27:31;;;;;;;40.03;29.08;;;17.60;99.90;;;;;;5102367;28;20959;-78
2023/06/18 06:29:59;;;;;;;38.30;27.67;;;18.00;99.90;;;;;;5096742;28;20420;-78
2023/06/18 06:32:24;;;;;;;41.33;27.17;;;18.00;99.90;;;;;;5104746;28;20507;-78
2023/06/18 06:34:50;;;;;;;35.13;26.20;;;18.20;99.90;;;;;;5092330;28;20833;-78
2023/06/18 06:37:16;;;;;;;34.08;25.48;;;;;;;;;;5101305;28;20432;-79
2023/06/18 06:39:42;;;;;;;32.78;24.88;;;;;;;;;;5097520;28;20497;-78
2023/06/18 06:42:09;;;;;;;33.55;25.10;;;18.60;99.90;;;;;;5094801;28;20475;-78
2023/06/18 06:44:35;;;;;;;32.92;25.15;;;;;;;;;;5095956;28;20424;-78
2023/06/18 06:47:01;;;;;;;31.92;24.15;;;18.50;99.90;;;;;;5088528;28;20428;-78
2023/06/18 06:49:27;;;;;;;30.73;22.90;;;;;;;;;;5110779;28;20515;-78
2023/06/18 06:51:56;;;;;;;29.40;23.38;;;19.10;99.90;;;;;;5078793;28;20483;-78
2023/06/18 06:54:22;;;;;;;30.42;22.73;;;19.40;99.90;;;;;;5079303;28;20435;-78
2023/06/18 06:56:48;;;;;;;29.63;21.40;;;;;;;;;;5099856;28;20458;-78
2023/06/18 06:59:14;;;;;;;27.97;21.10;;;19.90;99.90;;;;;;5098882;28;22301;-78
2023/06/18 07:01:42;;;;;;;28.60;21.20;;;;;;;;;;5096144;28;20416;-79
2023/06/18 07:04:08;;;;;;;28.00;21.02;;;;;;;;;;5078253;28;20472;-78
2023/06/18 07:06:35;;;;;;;25.73;21.08;;;;;;;;;;5094710;28;20911;-78
2023/06/18 07:09:03;;;;;;;26.75;20.48;;;;;;;;;;5076174;28;20463;-79
2023/06/18 07:11:28;;;;;;;24.35;18.15;;;19.90;99.90;;;;;;5099248;27;20408;-79
2023/06/18 07:13:57;;;;;;;26.08;18.90;;;;;;;;;;5094028;28;20410;-78
2023/06/18 07:16:23;;;;;;;25.13;19.23;;;20.40;99.90;;;;;;5096710;28;20913;-78
2023/06/18 07:18:49;;;;;;;25.33;19.93;;;20.50;99.90;;;;;;5064587;28;20469;-78
2023/06/18 07:21:15;;;;;;;23.10;18.00;;;;;;;;;;5068664;28;20880;-77
2023/06/18 07:23:41;;;;;;;20.33;17.35;;;20.50;99.90;;;;;;5096179;28;20954;-77
2023/06/18 07:26:07;;;;;;;22.42;17.63;;;;;;;;;;5070665;28;20449;-77
2023/06/18 07:28:33;;;;;;;23.73;17.30;;;;;;;;;;5078109;28;20429;-77
2023/06/18 07:30:58;;;;;;;22.05;17.08;;;20.50;99.90;;;;;;5092088;28;20429;-78
2023/06/18 07:33:24;;;;;;;20.80;16.63;;;20.60;99.90;;;;;;5081455;28;20418;-77
2023/06/18 07:35:50;;;;;;;21.50;16.65;;;21.00;99.90;;;;;;5086174;28;20408;-77
2023/06/18 07:38:16;;;;;;;21.13;16.73;;;21.00;99.90;;;;;;5104164;28;20424;-77
2023/06/18 07:40:41;;;;;;;19.83;16.92;;;20.80;99.90;;;;;;5077047;28;20454;-78
2023/06/18 07:43:09;;;;;;;21.05;16.88;;;20.90;99.90;;;;;;5063751;28;20425;-78
2023/06/18 07:45:35;;;;;;;21.42;16.00;;;21.40;99.90;;;;;;5100956;28;20504;-78
2023/06/18 07:48:01;;;;;;;19.40;15.23;;;21.50;99.90;;;;;;5095194;28;20422;-79
2023/06/18 07:50:27;;;;;;;20.60;15.80;;;21.50;99.90;;;;;;5082627;28;20423;-78
2023/06/18 07:52:53;;;;;;;20.40;16.02;;;;;;;;;;5077969;28;20429;-79
2023/06/18 07:55:18;;;;;;;19.85;15.77;;;21.60;99.90;;;;;;5076686;28;20443;-80
2023/06/18 07:57:44;;;;;;;19.42;15.57;;;21.90;99.90;;;;;;5100860;28;20844;-80
2023/06/18 08:00:11;;;;;;;18.95;15.07;;;22.00;99.90;;;;;;5082836;28;20751;-80
2023/06/18 08:02:37;;;;;;;20.27;15.10;;;;;;;;;;5107353;28;20429;-80
2023/06/18 08:05:04;;;;;;;17.80;15.13;;;22.20;99.90;;;;;;5068508;28;20420;-80
2023/06/18 08:07:29;;;;;;;16.48;14.23;;;22.30;99.90;;;;;;5073194;28;20905;-80
2023/06/18 08:09:55;;;;;;;17.98;14.63;;;22.40;99.90;;;;;;5075846;28;20425;-80
2023/06/18 08:12:21;;;;;;;18.35;15.23;;;22.10;99.90;;;;;;5078914;28;20452;-80
2023/06/18 08:14:47;;;;;;;19.27;14.40;;;22.30;99.90;;;;;;5074505;28;20416;-79
2023/06/18 08:17:16;;;;;;;16.27;13.45;;;22.50;99.90;;;;;;5074998;28;20425;-80
2023/06/18 08:19:47;;;;;;;18.63;14.43;;;22.60;99.90;;;;;;5075650;28;20445;-78
2023/06/18 08:22:15;;;;;;;20.50;14.45;;;22.50;99.90;;;;;;5093225;28;20792;-80
2023/06/18 08:24:41;;;;;;;17.70;14.02;;;;;;;;;;5103394;28;20465;-80
2023/06/18 08:27:07;;;;;;;17.40;12.90;;;23.10;99.90;;;;;;5074961;28;20436;-80
2023/06/18 08:29:33;;;;;;;15.82;13.35;;;23.40;99.90;;;;;;5096535;28;20418;-80
2023/06/18 08:32:04;;;;;;;17.80;13.20;;;23.10;99.90;;;;;;5099541;28;20505;-80
2023/06/18 08:34:36;;;;;;;17.20;12.88;;;23.20;99.90;;;;;;5097537;28;20412;-80
2023/06/18 08:37:02;;;;;;;15.95;12.23;;;23.40;99.90;;;;;;5094317;28;20526;-80
2023/06/18 08:39:29;;;;;;;16.95;11.73;;;23.80;99.90;;;;;;5089345;28;20412;-80
2023/06/18 08:41:55;;;;;;;14.00;11.52;;;23.90;99.90;;;;;;5077593;28;20927;-80
2023/06/18 08:44:23;;;;;;;20.98;13.52;;;23.80;99.90;;;;;;5053830;23;20427;-79
2023/06/18 08:46:51;;;;;;;14.77;11.88;;;23.70;99.90;;;;;;5069559;28;20446;-81
2023/06/18 08:49:18;;;;;;;12.63;10.70;;;23.90;99.90;;;;;;5062962;28;20427;-81
2023/06/18 08:51:45;;;;;;;14.00;10.82;;;23.70;99.90;;;;;;5077962;28;20434;-80
2023/06/18 08:54:22;;;;;;;13.77;11.33;;;24.10;99.90;;;;;;5068729;28;21860;-81
2023/06/18 08:56:55;;;;;;;13.45;10.93;;;23.90;99.90;;;;;;5076167;28;20498;-81
2023/06/18 08:59:21;;;;;;;13.93;10.00;;;24.20;99.90;;;;;;5069241;28;20457;-81
2023/06/18 09:01:47;;;;;;;12.80;9.90;;;24.20;99.90;;;;;;5073946;28;20428;-81
2023/06/18 09:04:14;;;;;;;13.68;9.35;;;24.40;99.90;;;;;;5051731;23;20455;-81
2023/06/18 09:06:42;;;;;;;14.35;9.82;;;24.70;99.90;;;;;;5066336;28;20432;-80
2023/06/18 09:09:07;;;;;;;14.52;8.85;;;25.00;99.90;;;;;;5067857;28;20436;-81
2023/06/18 09:11:33;;;;;;;10.68;9.27;;;25.10;99.90;;;;;;5049523;28;20431;-79
2023/06/18 09:13:59;;;;;;;10.93;8.47;;;24.80;99.90;;;;;;5025875;28;20423;-79
2023/06/18 09:16:27;;;;;;;10.93;7.90;;;25.20;99.90;;;;;;5069338;28;20436;-80
2023/06/18 09:18:53;;;;;;;10.63;7.75;;;25.10;99.90;;;;;;5049555;28;21471;-81
2023/06/18 09:21:40;;;;;;;9.88;8.15;;;25.20;99.90;;;;;;5067438;28;20791;-82
2023/06/18 09:24:16;;;;;;;9.13;7.70;;;24.90;99.90;;;;;;5070826;28;20436;-82
2023/06/18 09:26:41;;;;;;;8.80;7.53;;;25.20;99.90;;;;;;5074974;28;20955;-78
2023/06/18 09:29:09;;;;;;;10.43;7.90;;;25.50;99.90;;;;;;5038864;28;20419;-78
2023/06/18 09:31:43;;;;;;;9.50;7.00;;;25.50;99.90;;;;;;5056858;28;20882;-76
2023/06/18 09:34:14;;;;;;;8.97;7.80;;;25.30;99.50;;;;;;5057188;28;20461;-75
2023/06/18 09:36:44;;;;;;;8.15;7.03;;;25.50;99.90;;;;;;5074235;28;20655;-75
2023/06/18 09:39:29;;;;;;;8.73;6.93;;;25.60;99.90;;;;;;5064883;28;20475;-77
2023/06/18 09:41:55;;;;;;;8.93;6.40;;;25.60;98.10;;;;;;5065135;28;20427;-77
2023/06/18 09:44:22;;;;;;;9.68;7.28;;;25.30;97.80;;;;;;5061854;28;20660;-77
2023/06/18 09:46:56;;;;;;;10.30;7.28;;;25.80;98.80;;;;;;5076932;28;20419;-76
2023/06/18 09:49:27;;;;;;;10.30;7.47;;;25.70;98.50;;;;;;5061312;28;20467;-78
2023/06/18 09:51:54;;;;;;;9.32;6.60;;;26.10;98.50;;;;;;5087167;28;20498;-78
2023/06/18 09:54:21;;;;;;;9.23;6.80;;;25.90;98.00;;;;;;5055965;28;20439;-77
2023/06/18 09:57:02;;;;;;;7.95;6.90;;;26.20;97.70;;;;;;5057992;28;20446;-77
2023/06/18 09:59:28;;;;;;;9.80;7.53;;;26.40;97.30;;;;;;5070786;28;20506;-76
2023/06/18 10:01:55;;;;;;;9.95;7.30;;;26.40;97.20;;;;;;5071268;28;20440;-75
2023/06/18 10:04:21;;;;;;;9.25;6.93;;;26.40;96.90;;;;;;5075641;28;20430;-73
2023/06/18 10:07:00;;;;;;;9.38;6.85;;;26.40;97.10;;;;;;5071709;28;20442;-75
2023/06/18 10:09:32;;;;;;;8.90;7.00;;;26.20;96.00;;;;;;5065039;28;20439;-80
2023/06/18 10:12:00;;;;;;;8.27;6.60;;;25.90;96.30;;;;;;5068783;28;20417;-80
2023/06/18 10:14:28;;;;;;;8.95;6.88;;;26.20;96.50;;;;;;5055375;28;20500;-84
2023/06/18 10:17:09;;;;;;;8.02;6.68;;;26.40;96.10;;;;;;5051943;28;20444;-85
2023/06/18 10:19:44;;;;;;;9.10;7.15;;;26.10;95.00;;;;;;5065864;28;20439;-81
2023/06/18 10:22:11;;;;;;;7.65;6.50;;;26.40;95.70;;;;;;5076318;28;20428;-80
2023/06/18 10:25:02;;;;;;;8.48;6.75;;;26.70;96.30;;;;;;5058697;28;20475;-80
2023/06/18 10:27:29;;;;;;;9.13;6.93;;;27.20;94.90;;;;;;5073664;28;20424;-82
2023/06/18 10:30:00;;;;;;;7.87;6.53;;;27.20;95.80;;;;;;5063089;28;20767;-80
2023/06/18 10:32:27;;;;;;;7.78;6.97;;;27.40;95.00;;;;;;5057890;28;20442;-82
2023/06/18 10:34:57;;;;;;;7.90;6.85;;;27.90;94.50;;;;;;5057956;28;20437;-77
2023/06/18 10:37:25;;;;;;;8.60;6.65;;;26.90;94.10;;;;;;5076866;28;20428;-82
2023/06/18 10:39:51;;;;;;;11.82;6.65;;;27.40;94.60;;;;;;5042026;28;20431;-79
2023/06/18 10:42:19;;;;;;;8.43;6.38;;;27.20;93.90;;;;;;5072436;28;20421;-81
2023/06/18 10:44:57;;;;;;;10.37;6.73;;;27.30;93.70;;;;;;5059037;28;20514;-82
2023/06/18 10:47:27;;;;;;;8.60;6.85;;;26.70;92.50;;;;;;5079757;28;20425;-77
2023/06/18 10:50:02;;;;;;;7.90;6.80;;;26.80;93.00;;;;;;5054891;28;20423;-84
2023/06/18 10:52:33;;;;;;;9.40;6.78;;;27.10;94.20;;;;;;5060168;28;20513;-87
2023/06/18 10:55:22;;;;;;;7.72;6.68;;;27.00;93.50;;;;;;5045500;28;20925;-80
2023/06/18 10:57:49;;;;;;;8.32;6.13;;;27.00;92.40;;;;;;5053726;28;20431;-85
2023/06/18 11:00:24;;;;;;;9.48;6.68;;;27.50;92.70;;;;;;5074523;28;20473;-84
2023/06/18 11:03:00;;;;;;;12.52;7.30;;;27.40;92.80;;;;;;5059676;28;20443;-83
2023/06/18 11:05:32;;;;;;;12.03;7.30;;;25.60;91.90;;;;;;5076356;28;20435;-82
2023/06/18 11:08:04;;;;;;;8.25;6.82;;;27.80;92.80;;;;;;5058324;28;20459;-81
2023/06/18 11:10:35;;;;;;;9.98;6.85;;;27.80;92.60;;;;;;5074585;28;20435;-82
2023/06/18 11:13:05;;;;;;;10.15;7.32;;;28.10;92.40;;;;;;5077153;28;20427;-82
2023/06/18 11:15:31;;;;;;;9.93;6.88;;;28.00;92.20;;;;;;5056036;28;20439;-85
2023/06/18 11:18:01;;;;;;;8.55;6.68;;;28.00;92.10;;;;;;5046041;28;20487;-82
2023/06/18 11:20:30;;;;;;;9.73;7.00;;;28.30;91.60;;;;;;5060546;28;20520;-82
2023/06/18 11:22:57;;;;;;;8.53;6.67;;;28.20;91.40;;;;;;5059800;28;20455;-84
2023/06/18 11:25:24;;;;;;;8.40;6.70;;;28.20;90.80;;;;;;5070242;28;20428;-84
2023/06/18 11:27:53;;;;;;;8.30;6.32;;;28.50;91.40;;;;;;5075336;28;20418;-84
2023/06/18 11:30:19;;;;;;;8.32;7.00;;;28.70;91.40;;;;;;5068934;28;20533;-86
2023/06/18 11:32:46;;;;;;;9.23;6.70;;;28.70;91.00;;;;;;5048067;28;20999;-84
2023/06/18 11:35:13;;;;;;;8.63;6.78;;;28.30;90.10;;;;;;5068561;28;20704;-81
2023/06/18 11:37:40;;;;;;;8.45;7.07;;;28.60;91.10;;;;;;5042204;28;20496;-85
2023/06/18 11:40:07;;;;;;;8.98;6.57;;;28.50;90.70;;;;;;5071682;28;20427;-83
2023/06/18 11:42:34;;;;;;;8.15;6.45;;;28.80;90.40;;;;;;5062247;28;20434;-82
2023/06/18 11:45:02;;;;;;;9.60;6.82;;;29.30;90.20;;;;;;5051850;28;20455;-82
2023/06/18 11:47:30;;;;;;;10.23;6.80;;;29.30;89.50;;;;;;5059743;28;20454;-83
2023/06/18 11:49:57;;;;;;;9.20;6.80;;;29.10;87.80;;;;;;5059784;28;20934;-80
2023/06/18 11:52:24;;;;;;;7.43;6.50;;;29.10;88.00;;;;;;5056730;28;20434;-83
2023/06/18 11:54:51;;;;;;;7.88;6.80;;;28.90;87.00;;;;;;5067939;28;20457;-85
2023/06/18 11:57:20;;;;;;;7.43;6.00;;;28.70;87.10;;;;;;5043319;28;20422;-84
2023/06/18 11:59:49;;;;;;;8.98;6.07;;;28.80;87.20;;;;;;5078899;28;20451;-85
2023/06/18 12:02:26;;;;;;;8.98;6.50;;;29.10;86.30;;;;;;5066107;28;20464;-82
2023/06/18 12:04:57;;;;;;;8.30;6.05;;;29.20;85.20;;;;;;5058964;28;20420;-85
2023/06/18 12:07:24;;;;;;;7.63;6.40;;;29.60;85.30;;;;;;5067249;28;20419;-84
2023/06/18 12:09:53;;;;;;;8.32;5.90;;;29.80;85.20;;;;;;5050474;28;20423;-84
2023/06/18 12:12:41;;;;;;;7.87;6.40;;;29.50;84.70;;;;;;5055551;28;20427;-83
2023/06/18 12:15:22;;;;;;;9.35;6.10;;;29.80;83.30;;;;;;5061327;28;20417;-82
2023/06/18 12:17:55;;;;;;;11.07;7.05;;;29.70;84.30;;;;;;5057460;28;20439;-85
2023/06/18 12:20:27;;;;;;;8.88;6.18;;;29.60;83.00;;;;;;5058213;28;20440;-86
2023/06/18 12:22:58;;;;;;;8.13;6.10;;;29.40;83.40;;;;;;5069633;28;20945;-80
2023/06/18 12:25:27;;;;;;;8.48;6.13;;;29.10;84.30;;;;;;5065014;28;20429;-77
2023/06/18 12:27:59;;;;;;;8.02;6.15;;;29.20;83.50;;;;;;5057434;28;20502;-79
2023/06/18 12:30:43;;;;;;;8.50;6.07;;;29.30;83.70;;;;;;5055130;28;20466;-80
2023/06/18 12:33:11;;;;;;;10.73;6.32;;;29.20;84.10;;;;;;5061935;28;20485;-79
2023/06/18 12:35:40;;;;;;;8.75;6.35;;;29.70;84.00;;;;;;5065597;28;20429;-78
2023/06/18 12:38:08;;;;;;;8.88;6.40;;;29.70;83.30;;;;;;5043959;28;20424;-77
2023/06/18 12:40:46;;;;;;;9.75;6.28;;;29.40;83.80;;;;;;5053035;28;20756;-79
2023/06/18 12:43:13;;;;;;;8.60;6.40;;;29.60;82.50;;;;;;5057412;28;20961;-79
2023/06/18 12:45:40;;;;;;;8.75;6.00;;;29.40;83.30;;;;;;5068658;28;20431;-79
2023/06/18 12:48:16;;;;;;;8.65;6.60;;;29.10;84.20;;;;;;5058909;28;20470;-79
2023/06/18 12:50:47;;;;;;;8.60;6.83;;;29.40;85.40;;;;;;5075241;28;20441;-79
2023/06/18 12:53:25;;;;;;;8.18;6.80;;;29.30;83.50;;;;;;5054010;28;20602;-80
2023/06/18 12:55:53;;;;;;;8.47;6.83;;;29.60;83.90;;;;;;5058496;28;20432;-80
2023/06/18 12:58:23;;;;;;;10.00;6.63;;;29.80;82.10;;;;;;5072982;28;20508;-78
2023/06/18 13:00:53;;;;;;;8.00;5.82;;;29.80;80.00;;;;;;5076770;28;20554;-78
2023/06/18 13:03:19;;;;;;;8.20;6.30;;;30.40;79.80;;;;;;5056489;28;20893;-78
2023/06/18 13:05:47;;;;;;;8.63;6.70;;;30.60;80.70;;;;;;5070088;28;20428;-79
2023/06/18 13:08:20;;;;;;;10.45;6.53;;;30.20;79.50;;;;;;5062638;28;20412;-80
2023/06/18 13:10:51;;;;;;;7.85;6.65;;;30.50;80.00;;;;;;5056606;28;20439;-82
2023/06/18 13:13:18;;;;;;;8.52;6.55;;;30.50;80.30;;;;;;5073125;28;20416;-81
2023/06/18 13:15:45;;;;;;;12.10;6.55;;;30.80;80.30;;;;;;5041320;28;20431;-81